sensor_id;sensor_type;location;lat;lon;timestamp;pressure;altitude;pressure_sealevel;temperature;humidity
29879;BME280;16752;53.364;-1.488;2022-07-05T00:01:35;101037.50;;;22.95;36.76
29879;BME280;16752;53.364;-1.488;2022-07-05T00:05:02;101031.66;;;22.91;36.91
29879;BME280;16752;53.364;-1.488;2022-07-05T00:08:04;101040.84;;;22.89;37.24
29879;BME280;16752;53.364;-1.488;2022-07-05T00:10:37;101043.69;;;22.87;37.33
29879;BME280;16752;53.364;-1.488;2022-07-05T00:13:09;101033.16;;;22.85;37.64
29879;BME280;16752;53.364;-1.488;2022-07-05T00:15:52;101037.81;;;22.92;37.43
29879;BME280;16752;53.364;-1.488;2022-07-05T00:18:43;101038.00;;;22.98;37.16
29879;BME280;16752;53.364;-1.488;2022-07-05T00:21:55;101040.03;;;23.12;37.21
29879;BME280;16752;53.364;-1.488;2022-07-05T00:24:28;101035.84;;;23.18;36.76
29879;BME280;16752;53.364;-1.488;2022-07-05T00:26:58;101030.03;;;23.23;36.89
29879;BME280;16752;53.364;-1.488;2022-07-05T00:29:24;101029.53;;;23.27;36.79
29879;BME280;16752;53.364;-1.488;2022-07-05T00:34:29;101015.31;;;23.27;36.87
29879;BME280;16752;53.364;-1.488;2022-07-05T00:37:01;101022.50;;;23.26;36.74
29879;BME280;16752;53.364;-1.488;2022-07-05T00:42:36;101022.66;;;23.16;36.96
29879;BME280;16752;53.364;-1.488;2022-07-05T00:45:05;101018.97;;;23.17;36.96
29879;BME280;16752;53.364;-1.488;2022-07-05T00:47:37;101022.31;;;23.20;37.03
29879;BME280;16752;53.364;-1.488;2022-07-05T00:50:08;101017.97;;;23.18;36.93
29879;BME280;16752;53.364;-1.488;2022-07-05T00:52:37;101019.81;;;23.18;36.73
29879;BME280;16752;53.364;-1.488;2022-07-05T00:55:02;101020.66;;;23.18;36.60
29879;BME280;16752;53.364;-1.488;2022-07-05T00:57:32;101015.63;;;23.15;36.86
29879;BME280;16752;53.364;-1.488;2022-07-05T01:00:05;101014.47;;;23.10;36.89
29879;BME280;16752;53.364;-1.488;2022-07-05T01:02:34;101023.16;;;23.20;36.58
29879;BME280;16752;53.364;-1.488;2022-07-05T01:05:06;101022.66;;;23.16;36.99
29879;BME280;16752;53.364;-1.488;2022-07-05T01:10:27;101019.31;;;23.14;36.90
29879;BME280;16752;53.364;-1.488;2022-07-05T01:12:59;101027.00;;;23.09;36.98
29879;BME280;16752;53.364;-1.488;2022-07-05T01:15:52;101031.69;;;23.07;36.87
29879;BME280;16752;53.364;-1.488;2022-07-05T01:18:27;101022.66;;;23.08;36.65
29879;BME280;16752;53.364;-1.488;2022-07-05T01:21:02;101019.00;;;23.01;36.72
29879;BME280;16752;53.364;-1.488;2022-07-05T01:24:10;101025.63;;;22.97;36.78
29879;BME280;16752;53.364;-1.488;2022-07-05T01:26:40;101028.31;;;22.89;36.78
29879;BME280;16752;53.364;-1.488;2022-07-05T01:29:07;101030.47;;;22.85;36.88
29879;BME280;16752;53.364;-1.488;2022-07-05T01:34:44;101027.97;;;22.84;36.54
29879;BME280;16752;53.364;-1.488;2022-07-05T01:37:16;101020.78;;;22.84;36.50
29879;BME280;16752;53.364;-1.488;2022-07-05T01:40:02;101013.78;;;22.83;36.38
29879;BME280;16752;53.364;-1.488;2022-07-05T01:42:40;101015.63;;;22.83;36.27
29879;BME280;16752;53.364;-1.488;2022-07-05T01:45:33;101017.47;;;22.82;36.25
29879;BME280;16752;53.364;-1.488;2022-07-05T01:48:12;101018.28;;;22.83;36.28
29879;BME280;16752;53.364;-1.488;2022-07-05T01:53:29;101020.59;;;22.78;36.34
29879;BME280;16752;53.364;-1.488;2022-07-05T01:55:59;101024.56;;;22.74;36.44
29879;BME280;16752;53.364;-1.488;2022-07-05T01:58:27;101029.91;;;22.74;36.32
29879;BME280;16752;53.364;-1.488;2022-07-05T02:01:38;101027.41;;;22.72;36.22
29879;BME280;16752;53.364;-1.488;2022-07-05T02:04:12;101020.88;;;22.67;36.23
29879;BME280;16752;53.364;-1.488;2022-07-05T02:06:47;101021.06;;;22.65;35.96
29879;BME280;16752;53.364;-1.488;2022-07-05T02:09:13;101021.38;;;22.62;36.00
29879;BME280;16752;53.364;-1.488;2022-07-05T02:11:41;101011.69;;;22.61;36.30
29879;BME280;16752;53.364;-1.488;2022-07-05T02:14:09;101016.53;;;22.58;36.11
29879;BME280;16752;53.364;-1.488;2022-07-05T02:22:45;101020.00;;;22.50;35.90
29879;BME280;16752;53.364;-1.488;2022-07-05T02:31:12;101014.31;;;22.37;35.84
29879;BME280;16752;53.364;-1.488;2022-07-05T02:33:48;101016.75;;;22.30;35.62
29879;BME280;16752;53.364;-1.488;2022-07-05T02:36:44;101015.25;;;22.27;35.33
29879;BME280;16752;53.364;-1.488;2022-07-05T02:45:53;101026.31;;;22.07;35.44
29879;BME280;16752;53.364;-1.488;2022-07-05T02:51:00;101029.72;;;22.17;35.38
29879;BME280;16752;53.364;-1.488;2022-07-05T03:05:51;101017.91;;;22.19;35.16
29879;BME280;16752;53.364;-1.488;2022-07-05T03:15:26;101040.03;;;22.12;35.26
29879;BME280;16752;53.364;-1.488;2022-07-05T03:21:22;101032.88;;;22.12;34.73
29879;BME280;16752;53.364;-1.488;2022-07-05T03:24:03;101035.38;;;22.14;35.26
29879;BME280;16752;53.364;-1.488;2022-07-05T03:26:45;101041.25;;;22.17;35.26
29879;BME280;16752;53.364;-1.488;2022-07-05T03:29:30;101039.72;;;22.15;35.72
29879;BME280;16752;53.364;-1.488;2022-07-05T03:44:18;101055.44;;;22.26;35.87
29879;BME280;16752;53.364;-1.488;2022-07-05T03:59:52;101053.78;;;22.25;36.13
29879;BME280;16752;53.364;-1.488;2022-07-05T05:44:20;101128.91;;;23.06;35.75
29879;BME280;16752;53.364;-1.488;2022-07-05T06:00:15;101130.56;;;23.15;35.47
29879;BME280;16752;53.364;-1.488;2022-07-05T06:03:30;101139.25;;;23.09;35.61
29879;BME280;16752;53.364;-1.488;2022-07-05T06:12:08;101150.00;;;23.26;34.98
29879;BME280;16752;53.364;-1.488;2022-07-05T06:20:23;101141.81;;;23.27;34.03
29879;BME280;16752;53.364;-1.488;2022-07-05T06:26:11;101148.38;;;23.57;33.47
29879;BME280;16752;53.364;-1.488;2022-07-05T06:28:40;101146.22;;;23.69;33.22
29879;BME280;16752;53.364;-1.488;2022-07-05T06:31:40;101149.41;;;23.89;32.62
29879;BME280;16752;53.364;-1.488;2022-07-05T06:37:01;101145.00;;;24.20;31.88
29879;BME280;16752;53.364;-1.488;2022-07-05T06:42:36;101156.38;;;24.38;31.69
29879;BME280;16752;53.364;-1.488;2022-07-05T06:50:58;101164.50;;;24.61;31.00
29879;BME280;16752;53.364;-1.488;2022-07-05T06:54:09;101169.78;;;24.86;30.83
29879;BME280;16752;53.364;-1.488;2022-07-05T06:56:53;101170.09;;;24.99;30.13
29879;BME280;16752;53.364;-1.488;2022-07-05T06:59:33;101160.16;;;25.08;30.09
29879;BME280;16752;53.364;-1.488;2022-07-05T07:04:48;101170.88;;;25.08;29.60
29879;BME280;16752;53.364;-1.488;2022-07-05T07:32:31;101182.28;;;25.86;29.14
29879;BME280;16752;53.364;-1.488;2022-07-05T07:40:18;101209.41;;;25.92;29.48
29879;BME280;16752;53.364;-1.488;2022-07-05T08:15:27;101219.38;;;26.88;29.37
29879;BME280;16752;53.364;-1.488;2022-07-05T08:33:51;101214.91;;;28.52;27.03
29879;BME280;16752;53.364;-1.488;2022-07-05T08:58:54;101228.25;;;27.32;29.11
29879;BME280;16752;53.364;-1.488;2022-07-05T09:24:53;101233.34;;;29.18;26.95
29879;BME280;16752;53.364;-1.488;2022-07-05T09:30:58;101246.06;;;29.31;26.42
29879;BME280;16752;53.364;-1.488;2022-07-05T09:34:30;101247.41;;;29.07;26.37
29879;BME280;16752;53.364;-1.488;2022-07-05T09:37:12;101249.25;;;28.72;27.29
29879;BME280;16752;53.364;-1.488;2022-07-05T09:46:30;101261.66;;;28.38;27.93
29879;BME280;16752;53.364;-1.488;2022-07-05T09:52:07;101254.63;;;28.65;27.29
29879;BME280;16752;53.364;-1.488;2022-07-05T09:57:53;101245.44;;;29.35;27.04
29879;BME280;16752;53.364;-1.488;2022-07-05T10:22:26;101258.88;;;28.04;29.35
29879;BME280;16752;53.364;-1.488;2022-07-05T10:24:52;101263.53;;;28.38;29.71
29879;BME280;16752;53.364;-1.488;2022-07-05T10:30:57;101256.56;;;28.84;28.48
29879;BME280;16752;53.364;-1.488;2022-07-05T10:36:16;101265.94;;;28.54;29.30
29879;BME280;16752;53.364;-1.488;2022-07-05T10:38:47;101268.81;;;28.52;28.76
29879;BME280;16752;53.364;-1.488;2022-07-05T10:53:18;101247.63;;;28.43;28.55
29879;BME280;16752;53.364;-1.488;2022-07-05T11:11:10;101250.31;;;29.60;25.85
29879;BME280;16752;53.364;-1.488;2022-07-05T11:13:43;101253.22;;;29.58;26.13
29879;BME280;16752;53.364;-1.488;2022-07-05T11:16:38;101249.22;;;29.47;25.94
29879;BME280;16752;53.364;-1.488;2022-07-05T11:24:51;101245.19;;;30.51;23.14
29879;BME280;16752;53.364;-1.488;2022-07-05T11:30:22;101256.22;;;30.42;23.24
29879;BME280;16752;53.364;-1.488;2022-07-05T11:42:28;101255.09;;;29.64;23.25
29879;BME280;16752;53.364;-1.488;2022-07-05T11:48:03;101257.63;;;29.79;23.14
29879;BME280;16752;53.364;-1.488;2022-07-05T11:50:47;101258.25;;;29.88;23.21
29879;BME280;16752;53.364;-1.488;2022-07-05T11:53:13;101253.69;;;29.88;23.34
29879;BME280;16752;53.364;-1.488;2022-07-05T12:01:13;101259.09;;;29.88;22.69
29879;BME280;16752;53.364;-1.488;2022-07-05T12:03:39;101266.97;;;29.83;23.20
29879;BME280;16752;53.364;-1.488;2022-07-05T12:09:44;101270.75;;;29.95;23.03
29879;BME280;16752;53.364;-1.488;2022-07-05T12:12:27;101265.09;;;29.77;23.22
29879;BME280;16752;53.364;-1.488;2022-07-05T12:15:22;101263.66;;;29.88;22.92
29879;BME280;16752;53.364;-1.488;2022-07-05T12:17:50;101260.78;;;29.96;23.01
29879;BME280;16752;53.364;-1.488;2022-07-05T12:20:26;101268.25;;;30.00;22.97
29879;BME280;16752;53.364;-1.488;2022-07-05T12:22:52;101271.41;;;30.10;23.52
29879;BME280;16752;53.364;-1.488;2022-07-05T12:31:22;101268.28;;;30.33;22.83
29879;BME280;16752;53.364;-1.488;2022-07-05T12:33:55;101270.56;;;30.50;22.41
29879;BME280;16752;53.364;-1.488;2022-07-05T13:16:51;101280.94;;;32.45;19.47
29879;BME280;16752;53.364;-1.488;2022-07-05T13:33:59;101299.75;;;32.65;19.31
29879;BME280;16752;53.364;-1.488;2022-07-05T13:36:31;101290.53;;;32.91;19.60
29879;BME280;16752;53.364;-1.488;2022-07-05T13:38:57;101300.03;;;33.18;19.52
29879;BME280;16752;53.364;-1.488;2022-07-05T13:41:34;101308.72;;;33.45;18.78
29879;BME280;16752;53.364;-1.488;2022-07-05T13:44:02;101303.66;;;33.30;18.92
29879;BME280;16752;53.364;-1.488;2022-07-05T13:46:28;101302.59;;;33.13;19.25
29879;BME280;16752;53.364;-1.488;2022-07-05T13:55:18;101319.78;;;32.14;20.76
29879;BME280;16752;53.364;-1.488;2022-07-05T13:58:04;101324.03;;;32.35;20.00
29879;BME280;16752;53.364;-1.488;2022-07-05T14:00:33;101327.00;;;32.51;19.89
29879;BME280;16752;53.364;-1.488;2022-07-05T14:02:58;101318.66;;;32.71;19.38
29879;BME280;16752;53.364;-1.488;2022-07-05T14:08:01;101323.88;;;33.16;19.03
29879;BME280;16752;53.364;-1.488;2022-07-05T14:17:18;101327.63;;;33.15;19.04
29879;BME280;16752;53.364;-1.488;2022-07-05T14:20:06;101317.81;;;32.96;18.96
29879;BME280;16752;53.364;-1.488;2022-07-05T14:22:32;101333.03;;;32.78;18.59
29879;BME280;16752;53.364;-1.488;2022-07-05T14:24:57;101342.50;;;32.44;19.65
29879;BME280;16752;53.364;-1.488;2022-07-05T14:27:26;101336.34;;;32.31;19.43
29879;BME280;16752;53.364;-1.488;2022-07-05T14:32:21;101335.19;;;33.31;18.83
29879;BME280;16752;53.364;-1.488;2022-07-05T14:37:47;101336.56;;;33.04;18.90
29879;BME280;16752;53.364;-1.488;2022-07-05T14:40:19;101346.50;;;33.10;18.08
29879;BME280;16752;53.364;-1.488;2022-07-05T14:45:50;101332.94;;;33.28;19.00
29879;BME280;16752;53.364;-1.488;2022-07-05T14:48:15;101349.66;;;33.07;18.86
29879;BME280;16752;53.364;-1.488;2022-07-05T14:51:45;101336.09;;;33.07;18.97
29879;BME280;16752;53.364;-1.488;2022-07-05T14:54:22;101343.25;;;33.01;19.10
29879;BME280;16752;53.364;-1.488;2022-07-05T14:57:04;101348.91;;;33.18;19.03
29879;BME280;16752;53.364;-1.488;2022-07-05T14:59:32;101356.63;;;33.58;18.24
29879;BME280;16752;53.364;-1.488;2022-07-05T15:02:01;101343.31;;;33.86;18.50
29879;BME280;16752;53.364;-1.488;2022-07-05T15:04:47;101345.69;;;33.94;18.08
29879;BME280;16752;53.364;-1.488;2022-07-05T15:07:55;101355.09;;;34.52;18.61
29879;BME280;16752;53.364;-1.488;2022-07-05T15:13:18;101345.16;;;34.81;17.93
29879;BME280;16752;53.364;-1.488;2022-07-05T15:15:47;101353.53;;;34.44;17.99
29879;BME280;16752;53.364;-1.488;2022-07-05T15:18:15;101356.31;;;33.66;18.21
29879;BME280;16752;53.364;-1.488;2022-07-05T15:20:41;101352.63;;;33.05;19.29
29879;BME280;16752;53.364;-1.488;2022-07-05T15:23:28;101355.13;;;33.25;18.98
29879;BME280;16752;53.364;-1.488;2022-07-05T15:25:53;101350.19;;;33.16;19.48
29879;BME280;16752;53.364;-1.488;2022-07-05T15:28:20;101350.78;;;33.42;19.59
29879;BME280;16752;53.364;-1.488;2022-07-05T15:30:46;101355.66;;;33.82;18.99
29879;BME280;16752;53.364;-1.488;2022-07-05T15:33:14;101366.59;;;34.24;18.54
29879;BME280;16752;53.364;-1.488;2022-07-05T15:35:40;101345.53;;;34.73;17.79
29879;BME280;16752;53.364;-1.488;2022-07-05T15:38:06;101347.50;;;35.36;17.00
29879;BME280;16752;53.364;-1.488;2022-07-05T15:40:32;101346.38;;;35.77;16.44
29879;BME280;16752;53.364;-1.488;2022-07-05T15:42:57;101346.34;;;36.84;15.23
29879;BME280;16752;53.364;-1.488;2022-07-05T15:45:23;101347.63;;;37.81;14.96
29879;BME280;16752;53.364;-1.488;2022-07-05T15:47:51;101339.25;;;38.19;14.36
29879;BME280;16752;53.364;-1.488;2022-07-05T15:50:17;101341.72;;;38.58;13.65
29879;BME280;16752;53.364;-1.488;2022-07-05T15:52:42;101340.88;;;38.90;13.43
29879;BME280;16752;53.364;-1.488;2022-07-05T15:55:08;101345.56;;;38.99;12.81
29879;BME280;16752;53.364;-1.488;2022-07-05T16:00:16;101357.91;;;39.54;12.25
29879;BME280;16752;53.364;-1.488;2022-07-05T16:02:45;101352.22;;;39.86;12.19
29879;BME280;16752;53.364;-1.488;2022-07-05T16:08:19;101354.75;;;40.18;11.60
29879;BME280;16752;53.364;-1.488;2022-07-05T16:13:57;101358.28;;;38.73;12.96
29879;BME280;16752;53.364;-1.488;2022-07-05T16:19:16;101369.31;;;40.19;12.49
29879;BME280;16752;53.364;-1.488;2022-07-05T16:21:48;101359.91;;;39.89;11.76
29879;BME280;16752;53.364;-1.488;2022-07-05T16:24:33;101355.00;;;40.68;11.43
29879;BME280;16752;53.364;-1.488;2022-07-05T16:26:59;101365.88;;;41.29;11.04
29879;BME280;16752;53.364;-1.488;2022-07-05T16:29:27;101362.06;;;41.09;10.98
29879;BME280;16752;53.364;-1.488;2022-07-05T16:31:53;101364.59;;;41.01;11.52
29879;BME280;16752;53.364;-1.488;2022-07-05T16:34:20;101362.44;;;40.26;11.69
29879;BME280;16752;53.364;-1.488;2022-07-05T16:36:46;101360.03;;;38.52;13.18
29879;BME280;16752;53.364;-1.488;2022-07-05T16:39:12;101360.75;;;37.18;14.35
29879;BME280;16752;53.364;-1.488;2022-07-05T16:41:38;101366.13;;;35.96;15.16
29879;BME280;16752;53.364;-1.488;2022-07-05T16:44:08;101373.56;;;34.73;16.23
29879;BME280;16752;53.364;-1.488;2022-07-05T16:46:33;101372.53;;;33.72;17.68
29879;BME280;16752;53.364;-1.488;2022-07-05T16:48:59;101369.44;;;33.14;18.75
29879;BME280;16752;53.364;-1.488;2022-07-05T16:51:25;101367.13;;;32.68;19.51
29879;BME280;16752;53.364;-1.488;2022-07-05T16:53:53;101369.19;;;32.47;19.63
29879;BME280;16752;53.364;-1.488;2022-07-05T16:56:22;101369.03;;;32.11;19.89
29879;BME280;16752;53.364;-1.488;2022-07-05T16:58:52;101381.50;;;31.74;20.13
29879;BME280;16752;53.364;-1.488;2022-07-05T17:01:19;101379.50;;;31.49;20.67
29879;BME280;16752;53.364;-1.488;2022-07-05T17:03:49;101386.41;;;31.45;20.78
29879;BME280;16752;53.364;-1.488;2022-07-05T17:06:15;101375.63;;;31.19;21.44
29879;BME280;16752;53.364;-1.488;2022-07-05T17:08:41;101388.53;;;30.90;22.06
29879;BME280;16752;53.364;-1.488;2022-07-05T17:11:08;101385.38;;;30.54;21.96
29879;BME280;16752;53.364;-1.488;2022-07-05T17:13:42;101383.91;;;30.25;22.69
29879;BME280;16752;53.364;-1.488;2022-07-05T17:16:10;101387.25;;;30.27;22.81
29879;BME280;16752;53.364;-1.488;2022-07-05T17:18:36;101396.19;;;30.21;22.86
29879;BME280;16752;53.364;-1.488;2022-07-05T17:21:12;101398.59;;;30.02;22.75
29879;BME280;16752;53.364;-1.488;2022-07-05T17:23:48;101388.75;;;29.75;23.20
29879;BME280;16752;53.364;-1.488;2022-07-05T17:26:16;101393.06;;;29.35;23.29
29879;BME280;16752;53.364;-1.488;2022-07-05T17:29:04;101391.25;;;29.07;23.71
29879;BME280;16752;53.364;-1.488;2022-07-05T17:31:28;101389.03;;;28.89;23.90
29879;BME280;16752;53.364;-1.488;2022-07-05T17:33:54;101388.22;;;28.89;24.11
29879;BME280;16752;53.364;-1.488;2022-07-05T17:36:40;101388.31;;;28.81;24.07
29879;BME280;16752;53.364;-1.488;2022-07-05T17:39:05;101380.75;;;28.70;24.38
29879;BME280;16752;53.364;-1.488;2022-07-05T17:41:49;101382.69;;;28.54;24.41
29879;BME280;16752;53.364;-1.488;2022-07-05T17:44:14;101398.09;;;28.39;24.52
29879;BME280;16752;53.364;-1.488;2022-07-05T17:46:40;101392.41;;;28.27;24.18
29879;BME280;16752;53.364;-1.488;2022-07-05T17:49:08;101391.81;;;28.17;24.18
29879;BME280;16752;53.364;-1.488;2022-07-05T18:00:41;101392.75;;;27.88;25.06
29879;BME280;16752;53.364;-1.488;2022-07-05T18:03:16;101394.41;;;27.89;25.21
29879;BME280;16752;53.364;-1.488;2022-07-05T18:06:12;101401.97;;;27.79;24.92
29879;BME280;16752;53.364;-1.488;2022-07-05T18:08:37;101413.09;;;27.76;24.76
29879;BME280;16752;53.364;-1.488;2022-07-05T18:11:05;101404.75;;;27.71;24.55
29879;BME280;16752;53.364;-1.488;2022-07-05T18:13:38;101399.63;;;27.61;24.75
29879;BME280;16752;53.364;-1.488;2022-07-05T18:16:06;101403.25;;;27.54;24.84
29879;BME280;16752;53.364;-1.488;2022-07-05T18:21:50;101404.66;;;27.35;25.17
29879;BME280;16752;53.364;-1.488;2022-07-05T18:24:21;101408.19;;;27.35;25.18
29879;BME280;16752;53.364;-1.488;2022-07-05T18:26:47;101412.16;;;27.25;24.86
29879;BME280;16752;53.364;-1.488;2022-07-05T18:29:18;101397.22;;;27.22;24.80
29879;BME280;16752;53.364;-1.488;2022-07-05T18:31:47;101404.47;;;27.22;24.96
29879;BME280;16752;53.364;-1.488;2022-07-05T18:34:21;101411.59;;;27.15;25.13
29879;BME280;16752;53.364;-1.488;2022-07-05T18:36:51;101407.13;;;27.07;25.45
29879;BME280;16752;53.364;-1.488;2022-07-05T18:39:17;101422.44;;;27.06;25.33
29879;BME280;16752;53.364;-1.488;2022-07-05T18:42:05;101407.31;;;27.05;25.45
29879;BME280;16752;53.364;-1.488;2022-07-05T18:44:38;101410.13;;;27.12;25.36
29879;BME280;16752;53.364;-1.488;2022-07-05T18:47:07;101406.75;;;27.10;25.64
29879;BME280;16752;53.364;-1.488;2022-07-05T18:49:38;101404.44;;;27.07;25.60
29879;BME280;16752;53.364;-1.488;2022-07-05T18:52:04;101410.47;;;27.09;25.78
29879;BME280;16752;53.364;-1.488;2022-07-05T18:54:39;101422.47;;;26.98;25.67
29879;BME280;16752;53.364;-1.488;2022-07-05T18:59:32;101413.94;;;26.95;25.66
29879;BME280;16752;53.364;-1.488;2022-07-05T19:01:57;101411.31;;;26.87;25.97
29879;BME280;16752;53.364;-1.488;2022-07-05T19:05:02;101416.88;;;26.85;25.87
29879;BME280;16752;53.364;-1.488;2022-07-05T19:07:29;101414.09;;;26.78;26.38
29879;BME280;16752;53.364;-1.488;2022-07-05T19:10:19;101413.72;;;26.82;26.29
29879;BME280;16752;53.364;-1.488;2022-07-05T19:13:03;101411.03;;;26.82;26.38
29879;BME280;16752;53.364;-1.488;2022-07-05T19:15:49;101402.88;;;26.75;26.78
29879;BME280;16752;53.364;-1.488;2022-07-05T19:18:21;101412.50;;;26.69;26.80
29879;BME280;16752;53.364;-1.488;2022-07-05T19:20:51;101419.53;;;26.70;26.98
29879;BME280;16752;53.364;-1.488;2022-07-05T19:23:25;101418.75;;;26.62;27.36
29879;BME280;16752;53.364;-1.488;2022-07-05T19:25:51;101426.06;;;26.53;27.28
29879;BME280;16752;53.364;-1.488;2022-07-05T19:28:17;101415.31;;;26.53;27.23
29879;BME280;16752;53.364;-1.488;2022-07-05T19:30:43;101428.19;;;26.35;27.75
29879;BME280;16752;53.364;-1.488;2022-07-05T19:33:10;101429.72;;;26.29;27.93
29879;BME280;16752;53.364;-1.488;2022-07-05T19:35:41;101421.84;;;26.28;28.13
29879;BME280;16752;53.364;-1.488;2022-07-05T19:38:10;101427.91;;;26.22;28.16
29879;BME280;16752;53.364;-1.488;2022-07-05T19:43:31;101445.09;;;26.12;28.98
29879;BME280;16752;53.364;-1.488;2022-07-05T19:45:58;101444.59;;;26.09;28.77
29879;BME280;16752;53.364;-1.488;2022-07-05T19:48:27;101447.81;;;26.04;29.15
29879;BME280;16752;53.364;-1.488;2022-07-05T19:50:52;101453.88;;;25.98;29.36
29879;BME280;16752;53.364;-1.488;2022-07-05T19:53:18;101454.56;;;25.92;29.37
29879;BME280;16752;53.364;-1.488;2022-07-05T19:55:45;101455.28;;;25.86;29.52
29879;BME280;16752;53.364;-1.488;2022-07-05T19:58:17;101447.91;;;25.80;29.95
29879;BME280;16752;53.364;-1.488;2022-07-05T20:00:42;101449.75;;;25.79;29.62
29879;BME280;16752;53.364;-1.488;2022-07-05T20:03:17;101457.97;;;25.78;29.91
29879;BME280;16752;53.364;-1.488;2022-07-05T20:05:43;101464.06;;;25.72;29.80
29879;BME280;16752;53.364;-1.488;2022-07-05T20:08:08;101468.09;;;25.68;29.86
29879;BME280;16752;53.364;-1.488;2022-07-05T20:10:34;101460.72;;;25.62;30.04
29879;BME280;16752;53.364;-1.488;2022-07-05T20:13:07;101457.69;;;25.56;30.05
29879;BME280;16752;53.364;-1.488;2022-07-05T20:15:35;101458.72;;;25.47;30.28
29879;BME280;16752;53.364;-1.488;2022-07-05T20:18:02;101462.59;;;25.45;30.16
29879;BME280;16752;53.364;-1.488;2022-07-05T20:20:28;101461.25;;;25.41;30.41
29879;BME280;16752;53.364;-1.488;2022-07-05T20:22:54;101462.44;;;25.38;30.15
29879;BME280;16752;53.364;-1.488;2022-07-05T20:25:19;101465.25;;;25.37;30.38
29879;BME280;16752;53.364;-1.488;2022-07-05T20:27:45;101470.47;;;25.30;30.29
29879;BME280;16752;53.364;-1.488;2022-07-05T20:30:12;101468.66;;;25.22;30.56
29879;BME280;16752;53.364;-1.488;2022-07-05T20:32:38;101475.88;;;25.22;30.42
29879;BME280;16752;53.364;-1.488;2022-07-05T20:35:04;101480.06;;;25.16;30.65
29879;BME280;16752;53.364;-1.488;2022-07-05T20:37:31;101480.38;;;25.13;30.87
29879;BME280;16752;53.364;-1.488;2022-07-05T20:39:57;101480.56;;;25.12;30.67
29879;BME280;16752;53.364;-1.488;2022-07-05T20:42:23;101482.41;;;25.03;31.26
29879;BME280;16752;53.364;-1.488;2022-07-05T20:44:49;101487.94;;;25.02;31.03
29879;BME280;16752;53.364;-1.488;2022-07-05T20:47:15;101486.72;;;24.88;31.50
29879;BME280;16752;53.364;-1.488;2022-07-05T20:49:44;101489.91;;;24.83;31.74
29879;BME280;16752;53.364;-1.488;2022-07-05T20:52:09;101488.22;;;24.82;31.68
29879;BME280;16752;53.364;-1.488;2022-07-05T20:54:35;101494.09;;;24.78;31.64
29879;BME280;16752;53.364;-1.488;2022-07-05T20:57:01;101500.47;;;24.77;31.86
29879;BME280;16752;53.364;-1.488;2022-07-05T20:59:27;101500.63;;;24.75;31.74
29879;BME280;16752;53.364;-1.488;2022-07-05T21:01:54;101504.31;;;24.74;31.86
29879;BME280;16752;53.364;-1.488;2022-07-05T21:04:22;101498.25;;;24.72;31.66
29879;BME280;16752;53.364;-1.488;2022-07-05T21:06:50;101497.75;;;24.68;32.26
29879;BME280;16752;53.364;-1.488;2022-07-05T21:09:16;101506.97;;;24.66;32.24
29879;BME280;16752;53.364;-1.488;2022-07-05T21:11:41;101510.81;;;24.63;32.20
29879;BME280;16752;53.364;-1.488;2022-07-05T21:14:10;101524.22;;;24.63;32.20
29879;BME280;16752;53.364;-1.488;2022-07-05T21:16:38;101522.38;;;24.64;32.53
29879;BME280;16752;53.364;-1.488;2022-07-05T21:19:04;101521.03;;;24.60;32.42
29879;BME280;16752;53.364;-1.488;2022-07-05T21:21:30;101537.44;;;24.57;32.59
29879;BME280;16752;53.364;-1.488;2022-07-05T21:23:56;101531.75;;;24.52;32.87
29879;BME280;16752;53.364;-1.488;2022-07-05T21:26:22;101534.25;;;24.53;32.74
29879;BME280;16752;53.364;-1.488;2022-07-05T21:29:04;101535.94;;;24.54;32.97
29879;BME280;16752;53.364;-1.488;2022-07-05T21:31:30;101536.94;;;24.53;33.17
29879;BME280;16752;53.364;-1.488;2022-07-05T21:33:56;101541.06;;;24.48;33.37
29879;BME280;16752;53.364;-1.488;2022-07-05T21:36:23;101539.78;;;24.52;33.49
29879;BME280;16752;53.364;-1.488;2022-07-05T21:38:48;101547.94;;;24.50;33.54
29879;BME280;16752;53.364;-1.488;2022-07-05T21:41:14;101542.91;;;24.47;33.64
29879;BME280;16752;53.364;-1.488;2022-07-05T21:43:40;101540.75;;;24.51;33.57
29879;BME280;16752;53.364;-1.488;2022-07-05T21:46:06;101545.44;;;24.49;33.55
29879;BME280;16752;53.364;-1.488;2022-07-05T21:48:32;101538.72;;;24.45;34.00
29879;BME280;16752;53.364;-1.488;2022-07-05T21:50:59;101536.03;;;24.45;33.95
29879;BME280;16752;53.364;-1.488;2022-07-05T21:53:24;101533.53;;;24.43;33.89
29879;BME280;16752;53.364;-1.488;2022-07-05T21:55:50;101537.06;;;24.44;34.17
29879;BME280;16752;53.364;-1.488;2022-07-05T21:58:15;101549.78;;;24.42;34.15
29879;BME280;16752;53.364;-1.488;2022-07-05T22:00:41;101547.75;;;24.44;34.10
29879;BME280;16752;53.364;-1.488;2022-07-05T22:03:25;101548.09;;;24.41;34.26
29879;BME280;16752;53.364;-1.488;2022-07-05T22:06:10;101546.09;;;24.43;34.20
29879;BME280;16752;53.364;-1.488;2022-07-05T22:08:38;101549.59;;;24.43;34.39
29879;BME280;16752;53.364;-1.488;2022-07-05T22:11:05;101551.97;;;24.46;34.01
29879;BME280;16752;53.364;-1.488;2022-07-05T22:13:49;101552.84;;;24.55;33.92
29879;BME280;16752;53.364;-1.488;2022-07-05T22:16:15;101547.81;;;24.52;34.21
29879;BME280;16752;53.364;-1.488;2022-07-05T22:18:43;101553.16;;;24.52;34.22
29879;BME280;16752;53.364;-1.488;2022-07-05T22:21:14;101556.88;;;24.59;34.21
29879;BME280;16752;53.364;-1.488;2022-07-05T22:23:43;101545.81;;;24.62;34.13
29879;BME280;16752;53.364;-1.488;2022-07-05T22:26:09;101546.31;;;24.65;33.85
29879;BME280;16752;53.364;-1.488;2022-07-05T22:28:35;101541.31;;;24.71;33.91
29879;BME280;16752;53.364;-1.488;2022-07-05T22:31:01;101540.00;;;24.75;33.84
29879;BME280;16752;53.364;-1.488;2022-07-05T22:33:26;101531.47;;;24.79;33.68
29879;BME280;16752;53.364;-1.488;2022-07-05T22:35:52;101536.31;;;24.84;33.89
29879;BME280;16752;53.364;-1.488;2022-07-05T22:38:17;101527.25;;;24.85;33.72
29879;BME280;16752;53.364;-1.488;2022-07-05T22:40:43;101532.13;;;24.89;33.68